Time,TemperatureF,DewpointF,PressureIn,WindDirection,WindDirectionDegrees,WindSpeedMPH,WindSpeedGustMPH,Humidity,HourlyPrecipIn,Conditions,Clouds,dailyrainin,SoftwareType,DateUTC
2013-04-24 00:01:00,22.6,10.1,28.41,NW,305,0.0,0.0,58,0.00,CLR,OVC,0.00,WeatherDisplay:10.37,2013-04-24 04:01:00,
2013-04-24 00:06:00,22.3,9.7,28.41,NW,305,0.0,0.0,58,0.00,CLR,OVC,0.00,WeatherDisplay:10.37,2013-04-24 04:06:00,
2013-04-24 00:11:00,21.9,9.4,28.41,NW,305,0.0,0.0,58,0.00,CLR,OVC,0.00,WeatherDisplay:10.37,2013-04-24 04:11:00,
2013-04-24 00:16:00,21.9,9.8,28.41,NW,305,0.0,0.0,59,0.00,CLR,OVC,0.00,WeatherDisplay:10.37,2013-04-24 04:16:00,
2013-04-24 00:21:00,21.9,9.8,28.41,NW,305,0.0,0.0,59,0.00,CLR,OVC,0.00,WeatherDisplay:10.37,2013-04-24 04:21:00,
2013-04-24 00:26:00,21.9,9.8,28.41,NW,305,0.0,0.0,59,0.00,CLR,OVC,0.00,WeatherDisplay:10.37,2013-04-24 04:26:00,
2013-04-24 00:31:00,21.9,9.8,28.41,NW,305,0.0,0.0,59,0.00,CLR,OVC,0.00,WeatherDisplay:10.37,2013-04-24 04:31:00,
2013-04-24 00:36:00,21.6,9.4,28.41,NW,305,0.0,0.0,59,0.00,CLR,OVC,0.00,WeatherDisplay:10.37,2013-04-24 04:36:00,
2013-04-24 00:41:00,21.6,9.4,28.41,NW,305,0.0,0.0,59,0.00,CLR,OVC,0.00,WeatherDisplay:10.37,2013-04-24 04:41:00,
2013-04-24 00:46:00,21.4,9.3,28.41,NW,305,0.0,0.0,59,0.00,CLR,OVC,0.00,WeatherDisplay:10.37,2013-04-24 04:46:00,
2013-04-24 00:51:00,21.0,8.5,28.41,NW,305,0.0,0.0,58,0.00,CLR,OVC,0.00,WeatherDisplay:10.37,2013-04-24 04:51:00,
2013-04-24 00:56:00,21.0,8.9,28.41,NW,305,0.0,0.0,59,0.00,CLR,OVC,0.00,WeatherDisplay:10.37,2013-04-24 04:56:00,
2013-04-24 01:01:00,21.0,8.9,28.41,NW,305,0.0,0.0,59,0.00,CLR,OVC,0.00,WeatherDisplay:10.37,2013-04-24 05:01:00,
2013-04-24 01:06:00,21.0,8.9,28.41,NW,305,0.0,0.0,59,0.00,CLR,OVC,0.00,WeatherDisplay:10.37,2013-04-24 05:06:00,
2013-04-24 01:11:00,20.8,8.7,28.41,NW,305,0.0,0.0,59,0.00,CLR,OVC,0.00,WeatherDisplay:10.37,2013-04-24 05:11:00,
2013-04-24 01:16:00,20.5,8.4,28.41,NW,305,0.0,0.0,59,0.00,CLR,OVC,0.00,WeatherDisplay:10.37,2013-04-24 05:16:00,
2013-04-24 01:21:00,20.1,8.1,28.41,NW,305,0.0,0.0,59,0.00,CLR,OVC,0.00,WeatherDisplay:10.37,2013-04-24 05:21:00,
2013-04-24 01:26:00,20.1,8.1,28.41,NW,305,0.0,0.0,59,0.00,CLR,OVC,0.00,WeatherDisplay:10.37,2013-04-24 05:26:00,
2013-04-24 01:31:00,19.8,7.7,28.41,NW,305,0.0,0.0,59,0.00,CLR,OVC,0.00,WeatherDisplay:10.37,2013-04-24 05:31:00,
2013-04-24 01:36:00,19.6,7.6,28.38,NW,305,0.0,0.0,59,0.00,CLR,OVC,0.00,WeatherDisplay:10.37,2013-04-24 05:36:00,
2013-04-24 01:41:00,19.4,7.4,28.38,NW,305,0.0,0.0,59,0.00,CLR,OVC,0.00,WeatherDisplay:10.37,2013-04-24 05:41:00,
2013-04-24 01:46:00,19.2,7.2,28.38,NW,305,0.0,0.0,59,0.00,CLR,OVC,0.00,WeatherDisplay:10.37,2013-04-24 05:46:00,
2013-04-24 01:51:00,19.0,7.0,28.38,NW,305,0.0,0.0,59,0.00,CLR,OVC,0.00,WeatherDisplay:10.37,2013-04-24 05:51:00,
2013-04-24 01:56:00,18.9,6.9,28.38,NW,305,0.0,0.0,59,0.00,CLR,OVC,0.00,WeatherDisplay:10.37,2013-04-24 05:56:00,
2013-04-24 02:01:00,18.7,6.7,28.38,NW,305,0.0,0.0,59,0.00,CLR,OVC,0.00,WeatherDisplay:10.37,2013-04-24 06:01:00,
2013-04-24 02:06:00,18.9,7.3,28.41,NW,305,0.0,0.0,60,0.00,CLR,OVC,0.00,WeatherDisplay:10.37,2013-04-24 06:06:00,
2013-04-24 02:11:00,19.2,8.0,28.41,NW,305,0.0,0.0,61,0.00,CLR,OVC,0.00,WeatherDisplay:10.37,2013-04-24 06:11:00,
2013-04-24 02:16:00,19.4,7.8,28.41,NW,305,0.0,0.0,60,0.00,CLR,OVC,0.00,WeatherDisplay:10.37,2013-04-24 06:16:00,
2013-04-24 02:21:00,19.4,7.8,28.38,NW,305,0.0,0.0,60,0.00,CLR,OVC,0.00,WeatherDisplay:10.37,2013-04-24 06:21:00,
2013-04-24 02:26:00,19.4,7.8,28.38,NW,305,0.0,0.0,60,0.00,CLR,OVC,0.00,WeatherDisplay:10.37,2013-04-24 06:26:00,
2013-04-24 02:31:00,19.2,7.6,28.38,NW,305,0.0,0.0,60,0.00,CLR,OVC,0.00,WeatherDisplay:10.37,2013-04-24 06:31:00,
2013-04-24 02:36:00,18.9,7.3,28.38,NW,305,0.0,0.0,60,0.00,CLR,OVC,0.00,WeatherDisplay:10.37,2013-04-24 06:36:00,
2013-04-24 02:41:00,18.7,7.1,28.38,NW,305,0.0,0.0,60,0.00,CLR,OVC,0.00,WeatherDisplay:10.37,2013-04-24 06:41:00,
2013-04-24 02:46:00,18.7,7.1,28.38,NW,305,0.0,0.0,60,0.00,CLR,OVC,0.00,WeatherDisplay:10.37,2013-04-24 06:46:00,
2013-04-24 02:51:00,19.0,7.8,28.38,NW,305,0.0,0.0,61,0.00,CLR,OVC,0.00,WeatherDisplay:10.37,2013-04-24 06:51:00,
2013-04-24 02:56:00,19.0,7.8,28.38,NW,305,0.0,0.0,61,0.00,CLR,OVC,0.00,WeatherDisplay:10.37,2013-04-24 06:56:00,
2013-04-24 03:01:00,18.9,7.3,28.38,NW,305,0.0,0.0,60,0.00,CLR,OVC,0.00,WeatherDisplay:10.37,2013-04-24 07:01:00,
2013-04-24 03:06:00,18.5,6.9,28.38,NW,305,0.0,0.0,60,0.00,CLR,OVC,0.00,WeatherDisplay:10.37,2013-04-24 07:06:00,
2013-04-24 03:11:00,17.8,6.2,28.38,NW,305,0.0,0.0,60,0.00,CLR,OVC,0.00,WeatherDisplay:10.37,2013-04-24 07:11:00,
2013-04-24 03:16:00,17.6,6.1,28.38,NW,305,0.0,0.0,60,0.00,CLR,OVC,0.00,WeatherDisplay:10.37,2013-04-24 07:16:00,
2013-04-24 03:21:00,17.4,5.9,28.38,NW,305,0.0,0.0,60,0.00,CLR,OVC,0.00,WeatherDisplay:10.37,2013-04-24 07:21:00,
2013-04-24 03:26:00,16.9,5.4,28.38,NW,305,0.0,0.0,60,0.00,CLR,OVC,0.00,WeatherDisplay:10.37,2013-04-24 07:26:00,
2013-04-24 03:31:00,16.7,5.2,28.38,NW,305,0.0,0.0,60,0.00,CLR,OVC,0.00,WeatherDisplay:10.37,2013-04-24 07:31:00,
2013-04-24 03:36:00,16.5,5.0,28.38,NW,305,0.0,0.0,60,0.00,CLR,OVC,0.00,WeatherDisplay:10.37,2013-04-24 07:36:00,
2013-04-24 03:41:00,16.2,4.7,28.38,NW,305,0.0,0.0,60,0.00,CLR,OVC,0.00,WeatherDisplay:10.37,2013-04-24 07:41:00,
2013-04-24 03:46:00,16.0,4.5,28.38,NW,305,0.0,0.0,60,0.00,CLR,OVC,0.00,WeatherDisplay:10.37,2013-04-24 07:46:00,
2013-04-24 03:51:00,16.0,4.5,28.38,NW,305,0.0,0.0,60,0.00,CLR,OVC,0.00,WeatherDisplay:10.37,2013-04-24 07:51:00,
2013-04-24 03:56:00,15.8,4.4,28.38,NW,305,0.0,0.0,60,0.00,CLR,OVC,0.00,WeatherDisplay:10.37,2013-04-24 07:56:00,
2013-04-24 04:01:00,15.6,4.2,28.38,NW,305,0.0,0.0,60,0.00,CLR,OVC,0.00,WeatherDisplay:10.37,2013-04-24 08:01:00,
2013-04-24 04:06:00,15.3,3.8,28.38,NW,305,0.0,0.0,60,0.00,CLR,OVC,0.00,WeatherDisplay:10.37,2013-04-24 08:06:00,
2013-04-24 04:11:00,15.1,3.7,28.38,NW,305,0.0,0.0,60,0.00,CLR,OVC,0.00,WeatherDisplay:10.37,2013-04-24 08:11:00,
2013-04-24 04:16:00,15.3,4.2,28.38,NW,305,0.0,0.0,61,0.00,CLR,OVC,0.00,WeatherDisplay:10.37,2013-04-24 08:16:00,
2013-04-24 04:21:00,15.4,4.4,28.38,NW,305,0.0,0.0,61,0.00,CLR,OVC,0.00,WeatherDisplay:10.37,2013-04-24 08:21:00,
2013-04-24 04:26:00,15.3,3.8,28.38,NW,305,0.0,0.0,60,0.00,CLR,OVC,0.00,WeatherDisplay:10.37,2013-04-24 08:26:00,
2013-04-24 04:31:00,15.1,4.0,28.38,NW,305,0.0,0.0,61,0.00,CLR,OVC,0.00,WeatherDisplay:10.37,2013-04-24 08:31:00,
2013-04-24 04:36:00,15.3,4.2,28.38,NW,305,0.0,0.0,61,0.00,CLR,OVC,0.00,WeatherDisplay:10.37,2013-04-24 08:36:00,
2013-04-24 04:41:00,15.3,4.2,28.38,NW,305,0.0,0.0,61,0.00,CLR,OVC,0.00,WeatherDisplay:10.37,2013-04-24 08:41:00,
2013-04-24 04:46:00,15.1,3.7,28.38,NW,305,0.0,0.0,60,0.00,CLR,OVC,0.00,WeatherDisplay:10.37,2013-04-24 08:46:00,
2013-04-24 04:51:00,14.7,3.7,28.38,NW,305,0.0,0.0,61,0.00,CLR,OVC,0.00,WeatherDisplay:10.37,2013-04-24 08:51:00,
2013-04-24 04:56:00,14.5,3.5,28.38,NW,305,0.0,0.0,61,0.00,CLR,OVC,0.00,WeatherDisplay:10.37,2013-04-24 08:56:00,
2013-04-24 05:01:00,14.5,3.5,28.38,NW,305,0.0,0.0,61,0.00,CLR,OVC,0.00,WeatherDisplay:10.37,2013-04-24 09:01:00,
2013-04-24 05:06:00,14.5,3.5,28.38,NW,305,0.0,0.0,61,0.00,CLR,OVC,0.00,WeatherDisplay:10.37,2013-04-24 09:06:00,
2013-04-24 05:11:00,14.2,3.2,28.38,NW,305,0.0,0.0,61,0.00,CLR,OVC,0.00,WeatherDisplay:10.37,2013-04-24 09:11:00,
2013-04-24 05:16:00,14.2,2.8,28.38,NW,305,0.0,0.0,60,0.00,CLR,OVC,0.00,WeatherDisplay:10.37,2013-04-24 09:16:00,
2013-04-24 05:21:00,14.0,2.7,28.38,NW,305,0.0,0.0,60,0.00,CLR,OVC,0.00,WeatherDisplay:10.37,2013-04-24 09:21:00,
2013-04-24 05:26:00,13.8,2.8,28.38,NW,305,0.0,0.0,61,0.00,CLR,OVC,0.00,WeatherDisplay:10.37,2013-04-24 09:26:00,
2013-04-24 05:31:00,13.5,2.1,28.38,NW,305,0.0,0.0,60,0.00,CLR,OVC,0.00,WeatherDisplay:10.37,2013-04-24 09:31:00,
2013-04-24 05:36:00,13.5,2.1,28.38,NW,305,0.0,0.0,60,0.00,CLR,OVC,0.00,WeatherDisplay:10.37,2013-04-24 09:36:00,
2013-04-24 05:41:00,13.3,2.0,28.38,NW,305,0.0,0.0,60,0.00,CLR,OVC,0.00,WeatherDisplay:10.37,2013-04-24 09:41:00,
2013-04-24 05:46:00,12.9,2.0,28.38,NW,305,0.0,0.0,61,0.00,CLR,OVC,0.00,WeatherDisplay:10.37,2013-04-24 09:46:00,
2013-04-24 05:51:00,12.9,2.0,28.38,NW,305,0.0,0.0,61,0.00,CLR,OVC,0.00,WeatherDisplay:10.37,2013-04-24 09:51:00,
2013-04-24 05:56:00,13.1,2.2,28.38,NW,305,0.0,0.0,61,0.00,CLR,OVC,0.00,WeatherDisplay:10.37,2013-04-24 09:56:00,
2013-04-24 06:01:00,12.9,2.0,28.38,NW,305,0.0,0.0,61,0.00,CLR,OVC,0.00,WeatherDisplay:10.37,2013-04-24 10:01:00,
2013-04-24 06:06:00,12.9,2.0,28.38,NW,305,0.0,0.0,61,0.00,CLR,OVC,0.00,WeatherDisplay:10.37,2013-04-24 10:06:00,
2013-04-24 06:11:00,13.3,2.3,28.38,NW,305,0.0,0.0,61,0.00,CLR,OVC,0.00,WeatherDisplay:10.37,2013-04-24 10:11:00,
2013-04-24 06:16:00,13.5,2.5,28.38,NW,305,0.0,0.0,61,0.00,CLR,OVC,0.00,WeatherDisplay:10.37,2013-04-24 10:16:00,
2013-04-24 06:21:00,13.5,2.5,28.38,NW,305,0.0,0.0,61,0.00,CLR,OVC,0.00,WeatherDisplay:10.37,2013-04-24 10:21:00,
2013-04-24 06:26:00,13.5,2.5,28.38,NW,305,0.0,0.0,61,0.00,CLR,OVC,0.00,WeatherDisplay:10.37,2013-04-24 10:26:00,
2013-04-24 06:31:00,13.5,2.5,28.38,NW,305,0.0,0.0,61,0.00,CLR,OVC,0.00,WeatherDisplay:10.37,2013-04-24 10:31:00,
2013-04-24 06:36:00,13.3,2.0,28.38,NW,305,0.0,0.0,60,0.00,CLR,OVC,0.00,WeatherDisplay:10.37,2013-04-24 10:36:00,
2013-04-24 06:41:00,12.9,2.0,28.38,NW,305,0.0,0.0,61,0.00,CLR,OVC,0.00,WeatherDisplay:10.37,2013-04-24 10:41:00,
2013-04-24 06:46:00,12.9,2.0,28.38,NW,305,0.0,0.0,61,0.00,CLR,OVC,0.00,WeatherDisplay:10.37,2013-04-24 10:46:00,
2013-04-24 06:51:00,12.7,1.8,28.38,NW,305,0.0,0.0,61,0.00,CLR,OVC,0.00,WeatherDisplay:10.37,2013-04-24 10:51:00,
2013-04-24 06:56:00,12.7,1.8,28.38,NW,305,0.0,0.0,61,0.00,CLR,OVC,0.00,WeatherDisplay:10.37,2013-04-24 10:56:00,
2013-04-24 07:01:00,12.6,1.6,28.38,NW,305,0.0,0.0,61,0.00,CLR,OVC,0.00,WeatherDisplay:10.37,2013-04-24 11:01:00,
2013-04-24 07:06:00,12.6,1.6,28.38,NW,305,0.0,0.0,61,0.00,CLR,OVC,0.00,WeatherDisplay:10.37,2013-04-24 11:06:00,
2013-04-24 07:11:00,12.6,1.6,28.38,NW,305,0.0,0.0,61,0.00,CLR,OVC,0.00,WeatherDisplay:10.37,2013-04-24 11:11:00,
2013-04-24 07:16:00,12.7,1.8,28.38,NW,305,0.0,0.0,61,0.00,CLR,OVC,0.00,WeatherDisplay:10.37,2013-04-24 11:16:00,
2013-04-24 07:21:00,12.9,2.0,28.38,NW,305,0.0,0.0,61,0.00,CLR,OVC,0.00,WeatherDisplay:10.37,2013-04-24 11:21:00,
2013-04-24 07:26:00,13.1,2.2,28.38,NW,305,0.0,0.0,61,0.00,CLR,OVC,0.00,WeatherDisplay:10.37,2013-04-24 11:26:00,
2013-04-24 07:31:00,13.5,2.5,28.38,NW,305,0.0,0.0,61,0.00,CLR,OVC,0.00,WeatherDisplay:10.37,2013-04-24 11:31:00,
2013-04-24 07:36:00,13.6,2.7,28.38,NW,305,0.0,0.0,61,0.00,CLR,OVC,0.00,WeatherDisplay:10.37,2013-04-24 11:36:00,
2013-04-24 07:41:00,13.8,2.8,28.38,NW,305,0.0,0.0,61,0.00,CLR,OVC,0.00,WeatherDisplay:10.37,2013-04-24 11:41:00,
2013-04-24 07:46:00,14.2,3.5,28.38,NW,305,0.0,0.0,62,0.00,CLR,OVC,0.00,WeatherDisplay:10.37,2013-04-24 11:46:00,
2013-04-24 07:51:00,14.7,4.0,28.38,NW,305,0.0,0.0,62,0.00,CLR,OVC,0.00,WeatherDisplay:10.37,2013-04-24 11:51:00,
2013-04-24 07:56:00,15.3,4.6,28.38,NW,305,0.0,0.0,62,0.00,CLR,OVC,0.00,WeatherDisplay:10.37,2013-04-24 11:56:00,
2013-04-24 08:01:00,16.0,5.2,28.38,NW,304,0.0,0.0,62,0.00,CLR,OVC,0.00,WeatherDisplay:10.37,2013-04-24 12:01:00,
2013-04-24 08:06:00,17.1,6.6,28.38,West,279,0.0,0.0,63,0.00,CLR,OVC,0.00,WeatherDisplay:10.37,2013-04-24 12:06:00,
2013-04-24 08:11:00,18.3,8.2,28.38,WNW,283,0.0,0.0,64,0.00,CLR,OVC,0.00,WeatherDisplay:10.37,2013-04-24 12:11:00,
2013-04-24 08:16:00,19.6,9.7,28.38,West,274,0.0,0.0,65,0.00,CLR,OVC,0.00,WeatherDisplay:10.37,2013-04-24 12:16:00,
2013-04-24 08:21:00,21.2,12.3,28.38,West,267,0.0,0.0,68,0.00,CLR,OVC,0.00,WeatherDisplay:10.37,2013-04-24 12:21:00,
2013-04-24 08:26:00,22.8,14.5,28.38,WNW,289,0.0,0.0,70,0.00,CLR,OVC,0.00,WeatherDisplay:10.37,2013-04-24 12:26:00,
2013-04-24 08:31:00,24.1,16.0,28.38,NW,304,0.0,0.0,71,0.00,CLR,OVC,0.00,WeatherDisplay:10.37,2013-04-24 12:31:00,
2013-04-24 08:36:00,25.3,17.2,28.38,WNW,287,0.0,0.0,71,0.00,CLR,OVC,0.00,WeatherDisplay:10.37,2013-04-24 12:36:00,
2013-04-24 08:41:00,26.1,15.9,28.38,WNW,285,0.0,0.0,65,0.00,CLR,OVC,0.00,WeatherDisplay:10.37,2013-04-24 12:41:00,
2013-04-24 08:46:00,26.8,13.6,28.38,West,274,0.0,0.0,57,0.00,CLR,OVC,0.00,WeatherDisplay:10.37,2013-04-24 12:46:00,
2013-04-24 08:51:00,27.9,12.9,28.38,West,274,0.0,0.0,53,0.00,CLR,OVC,0.00,WeatherDisplay:10.37,2013-04-24 12:51:00,
2013-04-24 08:56:00,28.9,11.7,28.38,West,275,0.0,0.0,48,0.00,CLR,OVC,0.00,WeatherDisplay:10.37,2013-04-24 12:56:00,
2013-04-24 09:01:00,30.0,10.2,28.38,West,277,0.0,0.0,43,0.00,CLR,OVC,0.00,WeatherDisplay:10.37,2013-04-24 13:01:00,
2013-04-24 09:06:00,30.9,9.9,28.38,West,280,0.0,0.0,41,0.00,CLR,OVC,0.00,WeatherDisplay:10.37,2013-04-24 13:06:00,
2013-04-24 09:11:00,31.8,10.2,28.38,West,264,0.0,0.0,40,0.00,CLR,OVC,0.00,WeatherDisplay:10.37,2013-04-24 13:11:00,
2013-04-24 09:16:00,32.9,9.4,28.38,West,268,0.0,0.0,37,0.00,CLR,OVC,0.00,WeatherDisplay:10.37,2013-04-24 13:16:00,
2013-04-24 09:21:00,34.3,10.1,28.38,West,276,0.0,0.0,36,0.00,CLR,OVC,0.00,WeatherDisplay:10.37,2013-04-24 13:21:00,
2013-04-24 09:26:00,35.4,9.1,28.38,NNW,330,0.0,0.0,33,0.00,CLR,OVC,0.00,WeatherDisplay:10.37,2013-04-24 13:26:00,
2013-04-24 09:31:00,36.5,8.7,28.38,West,279,0.0,0.0,31,0.00,CLR,OVC,0.00,WeatherDisplay:10.37,2013-04-24 13:31:00,
2013-04-24 09:36:00,37.2,8.6,28.38,West,272,0.0,0.0,30,0.00,CLR,OVC,0.00,WeatherDisplay:10.37,2013-04-24 13:36:00,
2013-04-24 09:41:00,38.5,8.9,28.38,NW,305,0.0,0.0,29,0.00,CLR,OVC,0.00,WeatherDisplay:10.37,2013-04-24 13:41:00,
2013-04-24 09:46:00,38.8,8.5,28.38,West,280,0.0,0.0,28,0.00,CLR,OVC,0.00,WeatherDisplay:10.37,2013-04-24 13:46:00,
2013-04-24 09:51:00,39.6,7.4,28.38,WSW,254,2.2,4.6,26,0.00,CLR,OVC,0.00,WeatherDisplay:10.37,2013-04-24 13:51:00,
2013-04-24 09:56:00,40.3,8.1,28.38,North,0,0.0,3.1,26,0.00,CLR,OVC,0.00,WeatherDisplay:10.37,2013-04-24 13:56:00,
2013-04-24 10:01:00,40.8,5.8,28.38,West,276,2.2,3.5,23,0.00,CLR,OVC,0.00,WeatherDisplay:10.37,2013-04-24 14:01:00,
2013-04-24 10:06:00,41.4,4.3,28.38,WSW,250,4.0,5.8,21,0.00,CLR,OVC,0.00,WeatherDisplay:10.37,2013-04-24 14:06:00,
2013-04-24 10:11:00,41.9,3.7,28.38,West,261,2.7,5.8,20,0.00,CLR,OVC,0.00,WeatherDisplay:10.37,2013-04-24 14:11:00,
2013-04-24 10:16:00,42.3,4.0,28.38,NW,311,2.2,3.5,20,0.00,CLR,OVC,0.00,WeatherDisplay:10.37,2013-04-24 14:16:00,
2013-04-24 10:21:00,43.2,4.7,28.38,NNW,327,3.1,3.5,20,0.00,CLR,OVC,0.00,WeatherDisplay:10.37,2013-04-24 14:21:00,
2013-04-24 10:26:00,44.1,5.5,28.38,North,357,0.0,2.3,20,0.00,CLR,OVC,0.00,WeatherDisplay:10.37,2013-04-24 14:26:00,
2013-04-24 10:31:00,44.8,6.1,28.38,NNW,327,0.0,5.8,20,0.00,CLR,OVC,0.00,WeatherDisplay:10.37,2013-04-24 14:31:00,
2013-04-24 10:36:00,44.2,5.6,28.38,WNW,285,0.0,4.0,20,0.00,CLR,OVC,0.00,WeatherDisplay:10.37,2013-04-24 14:36:00,
2013-04-24 10:41:00,45.0,6.2,28.38,NNW,344,0.0,2.3,20,0.00,CLR,OVC,0.00,WeatherDisplay:10.37,2013-04-24 14:41:00,
2013-04-24 10:46:00,45.5,5.6,28.38,NW,308,3.6,5.8,19,0.00,CLR,OVC,0.00,WeatherDisplay:10.37,2013-04-24 14:46:00,
2013-04-24 10:51:00,45.5,5.6,28.38,West,279,4.9,6.9,19,0.00,CLR,OVC,0.00,WeatherDisplay:10.37,2013-04-24 14:51:00,
2013-04-24 10:56:00,45.7,5.7,28.38,West,269,3.6,5.8,19,0.00,CLR,OVC,0.00,WeatherDisplay:10.37,2013-04-24 14:56:00,
2013-04-24 11:01:00,46.2,6.1,28.38,NW,312,0.0,2.3,19,0.00,CLR,OVC,0.00,WeatherDisplay:10.37,2013-04-24 15:01:00,
2013-04-24 11:09:00,46.6,6.4,28.38,WNW,290,3.6,5.8,19,0.00,CLR,OVC,0.00,WeatherDisplay:10.37,2013-04-24 15:09:00,
2013-04-24 11:14:00,46.0,6.0,28.38,North,8,3.6,5.8,19,0.00,CLR,OVC,0.00,WeatherDisplay:10.37,2013-04-24 15:14:00,
2013-04-24 11:19:00,45.9,5.9,28.38,WSW,258,4.5,5.8,19,0.00,CLR,OVC,0.00,WeatherDisplay:10.37,2013-04-24 15:19:00,
2013-04-24 11:24:00,46.4,6.3,28.38,WNW,302,0.0,2.3,19,0.00,CLR,OVC,0.00,WeatherDisplay:10.37,2013-04-24 15:24:00,
2013-04-24 11:29:00,47.7,7.3,28.38,NW,313,0.0,5.8,19,0.00,CLR,OVC,0.00,WeatherDisplay:10.37,2013-04-24 15:29:00,
2013-04-24 11:34:00,48.4,7.9,28.35,WSW,250,3.6,8.1,19,0.00,CLR,OVC,0.00,WeatherDisplay:10.37,2013-04-24 15:34:00,
2013-04-24 11:39:00,47.7,7.3,28.35,NNW,339,4.0,4.0,19,0.00,CLR,OVC,0.00,WeatherDisplay:10.37,2013-04-24 15:39:00,
2013-04-24 11:44:00,46.8,4.2,28.35,WSW,239,4.9,8.1,17,0.00,CLR,OVC,0.00,WeatherDisplay:10.37,2013-04-24 15:44:00,
2013-04-24 11:49:00,46.4,6.3,28.35,SW,221,5.8,8.1,19,0.00,CLR,OVC,0.00,WeatherDisplay:10.37,2013-04-24 15:49:00,
2013-04-24 11:54:00,46.4,6.3,28.35,NNW,340,3.6,4.6,19,0.00,CLR,OVC,0.00,WeatherDisplay:10.37,2013-04-24 15:54:00,
2013-04-24 11:59:00,47.5,7.2,28.35,NNE,20,3.1,5.8,19,0.00,CLR,OVC,0.00,WeatherDisplay:10.37,2013-04-24 15:59:00,
2013-04-24 12:04:00,48.4,7.9,28.35,NW,313,2.7,4.6,19,0.00,CLR,OVC,0.00,WeatherDisplay:10.37,2013-04-24 16:04:00,
2013-04-24 12:09:00,48.6,8.1,28.35,WNW,295,6.3,10.4,19,0.00,CLR,OVC,0.00,WeatherDisplay:10.37,2013-04-24 16:09:00,
2013-04-24 12:14:00,48.9,8.4,28.35,West,259,2.7,3.5,19,0.00,CLR,OVC,0.00,WeatherDisplay:10.37,2013-04-24 16:14:00,
2013-04-24 12:19:00,48.4,7.9,28.35,NNE,13,0.0,5.4,19,0.00,CLR,OVC,0.00,WeatherDisplay:10.37,2013-04-24 16:19:00,
2013-04-24 12:24:00,48.4,7.9,28.35,NW,305,5.4,8.1,19,0.00,CLR,OVC,0.00,WeatherDisplay:10.37,2013-04-24 16:24:00,
2013-04-24 12:29:00,48.2,7.8,28.35,SSW,208,4.0,5.8,19,0.00,CLR,OVC,0.00,WeatherDisplay:10.37,2013-04-24 16:29:00,
2013-04-24 12:34:00,48.4,7.9,28.35,West,274,2.7,3.5,19,0.00,CLR,OVC,0.00,WeatherDisplay:10.37,2013-04-24 16:34:00,
2013-04-24 12:39:00,47.7,7.3,28.35,NNW,327,3.6,8.1,19,0.00,CLR,OVC,0.00,WeatherDisplay:10.37,2013-04-24 16:39:00,
2013-04-24 12:44:00,48.0,7.6,28.35,NNE,28,4.5,8.1,19,0.00,CLR,OVC,0.00,WeatherDisplay:10.37,2013-04-24 16:44:00,
2013-04-24 12:49:00,48.4,7.9,28.35,NW,318,3.6,3.6,19,0.00,CLR,OVC,0.00,WeatherDisplay:10.37,2013-04-24 16:49:00,
2013-04-24 12:54:00,48.2,7.8,28.35,WSW,253,3.1,4.6,19,0.00,CLR,OVC,0.00,WeatherDisplay:10.37,2013-04-24 16:54:00,
2013-04-24 12:59:00,48.9,8.4,28.35,NNW,346,4.9,5.8,19,0.00,CLR,OVC,0.00,WeatherDisplay:10.37,2013-04-24 16:59:00,
2013-04-24 13:04:00,49.1,8.5,28.35,West,273,3.1,5.8,19,0.00,CLR,OVC,0.00,WeatherDisplay:10.37,2013-04-24 17:04:00,
2013-04-24 13:09:00,49.6,9.0,28.35,West,266,4.5,5.8,19,0.00,CLR,OVC,0.00,WeatherDisplay:10.37,2013-04-24 17:09:00,
2013-04-24 13:14:00,48.7,8.2,28.35,SSE,167,5.4,6.9,19,0.00,CLR,OVC,0.00,WeatherDisplay:10.37,2013-04-24 17:14:00,
2013-04-24 13:19:00,49.1,8.5,28.35,WNW,293,6.3,9.2,19,0.00,CLR,OVC,0.00,WeatherDisplay:10.37,2013-04-24 17:19:00,
2013-04-24 13:24:00,48.6,8.1,28.35,SW,216,4.0,8.1,19,0.00,CLR,OVC,0.00,WeatherDisplay:10.37,2013-04-24 17:24:00,
2013-04-24 13:29:00,49.6,9.0,28.35,WNW,295,0.0,2.7,19,0.00,CLR,OVC,0.00,WeatherDisplay:10.37,2013-04-24 17:29:00,
2013-04-24 13:34:00,50.0,9.3,28.32,West,259,4.9,8.1,19,0.00,CLR,OVC,0.00,WeatherDisplay:10.37,2013-04-24 17:34:00,
2013-04-24 13:39:00,49.5,8.8,28.32,SW,214,2.2,5.8,19,0.00,CLR,OVC,0.00,WeatherDisplay:10.37,2013-04-24 17:39:00,
2013-04-24 13:44:00,49.6,9.0,28.32,West,273,3.6,5.8,19,0.00,CLR,OVC,0.00,WeatherDisplay:10.37,2013-04-24 17:44:00,
2013-04-24 13:49:00,50.0,9.3,28.32,NW,312,6.3,8.1,19,0.00,CLR,OVC,0.00,WeatherDisplay:10.37,2013-04-24 17:49:00,
2013-04-24 13:54:00,49.3,8.7,28.32,NW,305,3.6,6.7,19,0.00,CLR,OVC,0.00,WeatherDisplay:10.37,2013-04-24 17:54:00,
2013-04-24 13:59:00,49.6,9.0,28.32,NW,310,4.9,6.9,19,0.00,CLR,OVC,0.00,WeatherDisplay:10.37,2013-04-24 17:59:00,
2013-04-24 14:04:00,49.5,8.8,28.32,West,270,3.6,5.8,19,0.00,CLR,OVC,0.00,WeatherDisplay:10.37,2013-04-24 18:04:00,
2013-04-24 14:09:00,50.0,9.3,28.32,WNW,284,4.0,5.8,19,0.00,CLR,OVC,0.00,WeatherDisplay:10.37,2013-04-24 18:09:00,
2013-04-24 14:14:00,50.0,9.3,28.32,WNW,298,6.3,11.8,19,0.00,CLR,OVC,0.00,WeatherDisplay:10.37,2013-04-24 18:14:00,
2013-04-24 14:19:00,49.3,8.7,28.32,West,270,4.0,5.8,19,0.00,CLR,OVC,0.00,WeatherDisplay:10.37,2013-04-24 18:19:00,
2013-04-24 14:24:00,49.1,8.5,28.32,NW,309,4.5,5.8,19,0.00,CLR,OVC,0.00,WeatherDisplay:10.37,2013-04-24 18:24:00,
2013-04-24 14:29:00,49.5,8.8,28.32,NW,318,5.4,10.4,19,0.00,CLR,OVC,0.00,WeatherDisplay:10.37,2013-04-24 18:29:00,
2013-04-24 14:34:00,50.0,9.3,28.32,West,267,8.0,12.7,19,0.00,CLR,OVC,0.00,WeatherDisplay:10.37,2013-04-24 18:34:00,
2013-04-24 14:39:00,49.1,8.5,28.32,SSE,160,0.0,4.6,19,0.00,CLR,OVC,0.00,WeatherDisplay:10.37,2013-04-24 18:39:00,
2013-04-24 14:44:00,50.2,9.4,28.32,WNW,301,5.4,8.1,19,0.00,CLR,OVC,0.00,WeatherDisplay:10.37,2013-04-24 18:44:00,
2013-04-24 14:49:00,49.8,9.1,28.32,WSW,246,2.7,5.8,19,0.00,CLR,OVC,0.00,WeatherDisplay:10.37,2013-04-24 18:49:00,
2013-04-24 14:54:00,48.0,7.6,28.32,SSW,203,5.8,6.9,19,0.00,CLR,OVC,0.00,WeatherDisplay:10.37,2013-04-24 18:54:00,
2013-04-24 14:59:00,47.1,6.9,28.32,WSW,247,6.3,6.9,19,0.00,CLR,OVC,0.00,WeatherDisplay:10.37,2013-04-24 18:59:00,
2013-04-24 15:04:00,48.6,8.1,28.32,WSW,248,4.5,5.8,19,0.00,CLR,OVC,0.00,WeatherDisplay:10.37,2013-04-24 19:04:00,
2013-04-24 15:09:00,48.6,8.1,28.32,WNW,286,7.2,11.5,19,0.00,CLR,OVC,0.00,WeatherDisplay:10.37,2013-04-24 19:09:00,
2013-04-24 15:14:00,49.6,9.0,28.32,SW,219,5.4,8.1,19,0.00,CLR,OVC,0.00,WeatherDisplay:10.37,2013-04-24 19:14:00,
2013-04-24 15:19:00,50.0,9.3,28.29,WSW,257,0.0,5.4,19,0.00,CLR,OVC,0.00,WeatherDisplay:10.37,2013-04-24 19:19:00,
2013-04-24 15:24:00,47.7,7.3,28.29,WNW,296,4.5,5.8,19,0.00,CLR,OVC,0.00,WeatherDisplay:10.37,2013-04-24 19:24:00,
2013-04-24 15:29:00,49.1,8.5,28.29,NW,326,5.8,9.2,19,0.00,CLR,OVC,0.00,WeatherDisplay:10.37,2013-04-24 19:29:00,
2013-04-24 15:34:00,47.1,4.5,28.32,West,278,6.3,9.2,17,0.00,CLR,OVC,0.00,WeatherDisplay:10.37,2013-04-24 19:34:00,
2013-04-24 15:39:00,45.3,3.0,28.32,WNW,293,6.7,11.5,17,0.00,CLR,OVC,0.00,WeatherDisplay:10.37,2013-04-24 19:39:00,
2013-04-24 15:44:00,47.5,7.2,28.32,SW,234,8.3,12.7,19,0.00,CLR,OVC,0.00,WeatherDisplay:10.37,2013-04-24 19:44:00,
2013-04-24 15:49:00,47.8,7.5,28.32,NW,310,4.5,5.8,19,0.00,CLR,OVC,0.00,WeatherDisplay:10.37,2013-04-24 19:49:00,
2013-04-24 15:54:00,46.8,6.6,28.32,WSW,239,4.9,8.1,19,0.00,CLR,OVC,0.00,WeatherDisplay:10.37,2013-04-24 19:54:00,
2013-04-24 15:59:00,48.2,7.8,28.32,WSW,256,7.6,10.4,19,0.00,CLR,OVC,0.00,WeatherDisplay:10.37,2013-04-24 19:59:00,
2013-04-24 16:04:00,49.3,8.7,28.32,SSW,199,6.7,8.1,19,0.00,CLR,OVC,0.00,WeatherDisplay:10.37,2013-04-24 20:04:00,
2013-04-24 16:09:00,48.4,7.9,28.32,SW,227,6.7,10.4,19,0.00,CLR,OVC,0.00,WeatherDisplay:10.37,2013-04-24 20:09:00,
2013-04-24 16:14:00,49.6,9.0,28.32,South,190,5.8,10.5,19,0.00,CLR,OVC,0.00,WeatherDisplay:10.37,2013-04-24 20:14:00,
2013-04-24 16:19:00,48.7,8.2,28.32,West,265,3.1,3.5,19,0.00,CLR,OVC,0.00,WeatherDisplay:10.37,2013-04-24 20:19:00,
2013-04-24 16:24:00,48.9,8.4,28.32,SSW,212,4.5,6.9,19,0.00,CLR,OVC,0.00,WeatherDisplay:10.37,2013-04-24 20:24:00,
2013-04-24 16:29:00,49.3,8.7,28.32,SW,218,4.9,9.2,19,0.00,CLR,OVC,0.00,WeatherDisplay:10.37,2013-04-24 20:29:00,
2013-04-24 16:34:00,48.0,7.6,28.32,SW,235,6.7,8.1,19,0.00,CLR,OVC,0.00,WeatherDisplay:10.37,2013-04-24 20:34:00,
2013-04-24 16:39:00,48.2,7.8,28.32,West,269,5.4,6.9,19,0.00,CLR,OVC,0.00,WeatherDisplay:10.37,2013-04-24 20:39:00,
2013-04-24 16:44:00,47.5,7.2,28.32,West,279,4.5,4.5,19,0.00,CLR,OVC,0.00,WeatherDisplay:10.37,2013-04-24 20:44:00,
2013-04-24 16:49:00,46.9,4.3,28.32,WNW,297,5.8,8.1,17,0.00,CLR,OVC,0.00,WeatherDisplay:10.37,2013-04-24 20:49:00,
2013-04-24 16:54:00,46.8,6.6,28.32,SW,223,2.7,5.8,19,0.00,CLR,OVC,0.00,WeatherDisplay:10.37,2013-04-24 20:54:00,
2013-04-24 16:59:00,48.9,8.4,28.32,WSW,252,4.9,8.1,19,0.00,CLR,OVC,0.00,WeatherDisplay:10.37,2013-04-24 20:59:00,
2013-04-24 17:04:00,46.9,6.7,28.32,SW,225,5.4,8.1,19,0.00,CLR,OVC,0.00,WeatherDisplay:10.37,2013-04-24 21:04:00,
2013-04-24 17:09:00,46.6,6.4,28.32,West,261,2.2,5.8,19,0.00,CLR,OVC,0.00,WeatherDisplay:10.37,2013-04-24 21:09:00,
2013-04-24 17:14:00,47.8,7.5,28.32,West,274,4.0,9.2,19,0.00,CLR,OVC,0.00,WeatherDisplay:10.37,2013-04-24 21:14:00,
2013-04-24 17:19:00,46.0,3.6,28.32,SW,225,4.0,5.8,17,0.00,CLR,OVC,0.00,WeatherDisplay:10.37,2013-04-24 21:19:00,
2013-04-24 17:24:00,45.1,2.8,28.32,SW,232,3.6,5.8,17,0.00,CLR,OVC,0.00,WeatherDisplay:10.37,2013-04-24 21:24:00,
2013-04-24 17:29:00,45.3,3.0,28.32,West,279,3.6,4.6,17,0.00,CLR,OVC,0.00,WeatherDisplay:10.37,2013-04-24 21:29:00,
2013-04-24 17:34:00,46.8,6.6,28.32,West,275,0.0,3.5,19,0.00,CLR,OVC,0.00,WeatherDisplay:10.37,2013-04-24 21:34:00,
2013-04-24 17:39:00,49.3,8.7,28.32,WSW,251,0.0,5.4,19,0.00,CLR,OVC,0.00,WeatherDisplay:10.37,2013-04-24 21:39:00,
2013-04-24 17:44:00,47.8,7.5,28.32,West,264,6.3,8.1,19,0.00,CLR,OVC,0.00,WeatherDisplay:10.37,2013-04-24 21:44:00,
2013-04-24 17:49:00,47.7,7.3,28.32,WNW,287,4.0,5.8,19,0.00,CLR,OVC,0.00,WeatherDisplay:10.37,2013-04-24 21:49:00,
2013-04-24 17:54:00,48.7,8.2,28.32,West,270,4.9,9.2,19,0.00,CLR,OVC,0.00,WeatherDisplay:10.37,2013-04-24 21:54:00,
2013-04-24 17:59:00,48.9,8.4,28.32,West,281,6.3,10.4,19,0.00,CLR,OVC,0.00,WeatherDisplay:10.37,2013-04-24 21:59:00,
2013-04-24 18:04:00,48.4,7.9,28.32,South,182,4.0,5.8,19,0.00,CLR,OVC,0.00,WeatherDisplay:10.37,2013-04-24 22:04:00,
2013-04-24 18:09:00,48.6,8.1,28.32,South,170,2.7,2.7,19,0.00,CLR,OVC,0.00,WeatherDisplay:10.37,2013-04-24 22:09:00,
2013-04-24 18:14:00,46.4,3.9,28.32,WSW,256,3.6,6.9,17,0.00,CLR,OVC,0.00,WeatherDisplay:10.37,2013-04-24 22:14:00,
2013-04-24 18:19:00,45.7,3.3,28.32,SSW,196,0.0,5.8,17,0.00,CLR,OVC,0.00,WeatherDisplay:10.37,2013-04-24 22:19:00,
2013-04-24 18:24:00,44.6,2.4,28.32,WSW,238,3.6,5.8,17,0.00,CLR,OVC,0.00,WeatherDisplay:10.37,2013-04-24 22:24:00,
2013-04-24 18:29:00,44.2,2.1,28.32,WSW,250,5.4,6.9,17,0.00,CLR,OVC,0.00,WeatherDisplay:10.37,2013-04-24 22:29:00,
2013-04-24 18:34:00,44.2,2.1,28.32,West,274,5.4,9.2,17,0.00,CLR,OVC,0.00,WeatherDisplay:10.37,2013-04-24 22:34:00,
2013-04-24 18:39:00,45.0,2.7,28.32,WSW,253,4.0,5.8,17,0.00,CLR,OVC,0.00,WeatherDisplay:10.37,2013-04-24 22:39:00,
2013-04-24 18:44:00,45.3,3.0,28.32,WSW,247,5.8,8.1,17,0.00,CLR,OVC,0.00,WeatherDisplay:10.37,2013-04-24 22:44:00,
2013-04-24 18:49:00,45.7,3.3,28.32,West,275,4.5,4.6,17,0.00,CLR,OVC,0.00,WeatherDisplay:10.37,2013-04-24 22:49:00,
2013-04-24 18:54:00,45.0,2.7,28.32,SW,229,5.4,5.8,17,0.00,CLR,OVC,0.00,WeatherDisplay:10.37,2013-04-24 22:54:00,
2013-04-24 18:59:00,43.9,1.8,28.32,West,268,2.7,3.5,17,0.00,CLR,OVC,0.00,WeatherDisplay:10.37,2013-04-24 22:59:00,
2013-04-24 19:04:00,43.2,2.4,28.32,WSW,237,2.2,6.3,18,0.00,CLR,OVC,0.00,WeatherDisplay:10.37,2013-04-24 23:04:00,
2013-04-24 19:09:00,42.8,2.1,28.32,WNW,292,5.4,10.4,18,0.00,CLR,OVC,0.00,WeatherDisplay:10.37,2013-04-24 23:09:00,
2013-04-24 19:14:00,42.8,2.1,28.32,South,186,0.0,5.8,18,0.00,CLR,OVC,0.00,WeatherDisplay:10.37,2013-04-24 23:14:00,
2013-04-24 19:19:00,42.6,2.0,28.32,SW,233,2.2,3.5,18,0.00,CLR,OVC,0.00,WeatherDisplay:10.37,2013-04-24 23:19:00,
2013-04-24 19:24:00,42.6,2.0,28.32,SSW,210,0.0,3.5,18,0.00,CLR,OVC,0.00,WeatherDisplay:10.37,2013-04-24 23:24:00,
2013-04-24 19:29:00,42.4,1.8,28.32,SSW,211,0.0,3.5,18,0.00,CLR,OVC,0.00,WeatherDisplay:10.37,2013-04-24 23:29:00,
2013-04-24 19:34:00,42.3,1.7,28.32,SW,221,0.0,3.5,18,0.00,CLR,OVC,0.00,WeatherDisplay:10.37,2013-04-24 23:34:00,
2013-04-24 19:39:00,42.1,1.5,28.32,SSW,193,3.1,5.8,18,0.00,CLR,OVC,0.00,WeatherDisplay:10.37,2013-04-24 23:39:00,
2013-04-24 19:44:00,41.7,1.2,28.32,South,191,0.0,2.7,18,0.00,CLR,OVC,0.00,WeatherDisplay:10.37,2013-04-24 23:44:00,
2013-04-24 19:49:00,41.4,0.9,28.32,WSW,256,3.1,5.8,18,0.00,CLR,OVC,0.00,WeatherDisplay:10.37,2013-04-24 23:49:00,
2013-04-24 19:54:00,41.0,0.6,28.32,WSW,251,2.7,5.8,18,0.00,CLR,OVC,0.00,WeatherDisplay:10.37,2013-04-24 23:54:00,
2013-04-24 19:59:00,41.0,0.6,28.32,West,259,2.2,2.3,18,0.00,CLR,OVC,0.00,WeatherDisplay:10.37,2013-04-24 23:59:00,
2013-04-24 20:04:00,41.0,0.6,28.32,WSW,238,0.0,2.3,18,0.00,CLR,OVC,0.00,WeatherDisplay:10.37,2013-04-25 00:04:00,
2013-04-24 20:09:00,40.6,0.4,28.32,WSW,238,0.0,0.0,18,0.00,CLR,OVC,0.00,WeatherDisplay:10.37,2013-04-25 00:09:00,
2013-04-24 20:14:00,40.3,0.1,28.32,SSW,209,0.0,2.3,18,0.00,CLR,OVC,0.00,WeatherDisplay:10.37,2013-04-25 00:14:00,
2013-04-24 20:19:00,39.9,3.1,28.32,SSW,209,0.0,0.0,21,0.00,CLR,OVC,0.00,WeatherDisplay:10.37,2013-04-25 00:19:00,
2013-04-24 20:24:00,39.0,2.3,28.32,SSW,209,0.0,0.0,21,0.00,CLR,OVC,0.00,WeatherDisplay:10.37,2013-04-25 00:24:00,
2013-04-24 20:29:00,38.3,1.7,28.32,SSW,209,0.0,0.0,21,0.00,CLR,OVC,0.00,WeatherDisplay:10.37,2013-04-25 00:29:00,
2013-04-24 20:34:00,37.6,5.7,28.32,SSW,209,0.0,0.0,26,0.00,CLR,OVC,0.00,WeatherDisplay:10.37,2013-04-25 00:34:00,
2013-04-24 20:39:00,36.7,5.0,28.32,SSW,209,0.0,0.0,26,0.00,CLR,OVC,0.00,WeatherDisplay:10.37,2013-04-25 00:39:00,
2013-04-24 20:44:00,36.5,4.8,28.32,SW,214,0.0,0.0,26,0.00,CLR,OVC,0.00,WeatherDisplay:10.37,2013-04-25 00:44:00,
2013-04-24 20:49:00,36.3,7.0,28.32,SW,214,0.0,0.0,29,0.00,CLR,OVC,0.00,WeatherDisplay:10.37,2013-04-25 00:49:00,
2013-04-24 20:54:00,36.0,7.5,28.32,SW,214,0.0,0.0,30,0.00,CLR,OVC,0.00,WeatherDisplay:10.37,2013-04-25 00:54:00,
2013-04-24 20:59:00,35.8,7.3,28.32,SW,214,0.0,0.0,30,0.00,CLR,OVC,0.00,WeatherDisplay:10.37,2013-04-25 00:59:00,
2013-04-24 21:04:00,35.8,8.0,28.32,SW,214,0.0,0.0,31,0.00,CLR,OVC,0.00,WeatherDisplay:10.37,2013-04-25 01:04:00,
2013-04-24 21:09:00,35.8,2.4,28.32,ESE,106,4.9,5.8,24,0.00,CLR,OVC,0.00,WeatherDisplay:10.37,2013-04-25 01:09:00,
2013-04-24 21:14:00,36.0,2.6,28.32,East,86,4.0,5.8,24,0.00,CLR,OVC,0.00,WeatherDisplay:10.37,2013-04-25 01:14:00,
2013-04-24 21:19:00,36.1,2.8,28.32,ESE,117,0.0,0.0,24,0.00,CLR,OVC,0.00,WeatherDisplay:10.37,2013-04-25 01:19:00,
2013-04-24 21:24:00,36.0,0.7,28.32,SSW,204,0.0,2.3,22,0.00,CLR,OVC,0.00,WeatherDisplay:10.37,2013-04-25 01:24:00,
2013-04-24 21:29:00,36.0,2.6,28.32,South,185,3.1,3.5,24,0.00,CLR,OVC,0.00,WeatherDisplay:10.37,2013-04-25 01:29:00,
2013-04-24 21:34:00,36.3,9.2,28.35,West,265,4.5,5.8,32,0.00,CLR,OVC,0.00,WeatherDisplay:10.37,2013-04-25 01:34:00,
2013-04-24 21:39:00,36.9,12.4,28.35,West,271,2.7,5.8,36,0.00,CLR,OVC,0.00,WeatherDisplay:10.37,2013-04-25 01:39:00,
2013-04-24 21:44:00,36.7,12.2,28.35,West,266,0.0,3.5,36,0.00,CLR,OVC,0.00,WeatherDisplay:10.37,2013-04-25 01:44:00,
2013-04-24 21:49:00,36.0,8.9,28.35,NNW,338,4.0,6.9,32,0.00,CLR,OVC,0.00,WeatherDisplay:10.37,2013-04-25 01:49:00,
2013-04-24 21:54:00,35.8,8.0,28.35,NNW,329,0.0,0.0,31,0.00,CLR,OVC,0.00,WeatherDisplay:10.37,2013-04-25 01:54:00,
2013-04-24 21:59:00,35.2,7.6,28.35,NNW,329,0.0,0.0,31,0.00,CLR,OVC,0.00,WeatherDisplay:10.37,2013-04-25 01:59:00,
2013-04-24 22:04:00,34.7,7.1,28.35,NNE,33,0.0,2.3,31,0.00,CLR,OVC,0.00,WeatherDisplay:10.37,2013-04-25 02:04:00,
2013-04-24 22:09:00,34.5,6.9,28.35,NNW,344,0.0,0.0,31,0.00,CLR,OVC,0.00,WeatherDisplay:10.37,2013-04-25 02:09:00,
2013-04-24 22:14:00,34.2,7.3,28.35,North,357,0.0,0.0,32,0.00,CLR,OVC,0.00,WeatherDisplay:10.37,2013-04-25 02:14:00,
2013-04-24 22:19:00,33.8,6.3,28.35,NE,34,0.0,0.0,31,0.00,CLR,OVC,0.00,WeatherDisplay:10.37,2013-04-25 02:19:00,
2013-04-24 22:24:00,33.4,6.0,28.35,ENE,58,0.0,0.0,31,0.00,CLR,OVC,0.00,WeatherDisplay:10.37,2013-04-25 02:24:00,
2013-04-24 22:29:00,32.9,6.9,28.35,ENE,73,0.0,0.0,33,0.00,CLR,OVC,0.00,WeatherDisplay:10.37,2013-04-25 02:29:00,
2013-04-24 22:34:00,32.7,6.7,28.32,ENE,71,0.0,0.0,33,0.00,CLR,OVC,0.00,WeatherDisplay:10.37,2013-04-25 02:34:00,
2013-04-24 22:39:00,32.4,10.7,28.32,ENE,71,0.0,0.0,40,0.00,CLR,OVC,0.00,WeatherDisplay:10.37,2013-04-25 02:39:00,
2013-04-24 22:44:00,32.2,6.9,28.32,ENE,71,0.0,0.0,34,0.00,CLR,OVC,0.00,WeatherDisplay:10.37,2013-04-25 02:44:00,
2013-04-24 22:49:00,31.8,9.1,28.32,ENE,71,0.0,0.0,38,0.00,CLR,OVC,0.00,WeatherDisplay:10.37,2013-04-25 02:49:00,
2013-04-24 22:54:00,31.3,7.4,28.32,ENE,71,0.0,0.0,36,0.00,CLR,OVC,0.00,WeatherDisplay:10.37,2013-04-25 02:54:00,
2013-04-24 22:59:00,30.7,9.2,28.32,ENE,71,0.0,0.0,40,0.00,CLR,OVC,0.00,WeatherDisplay:10.37,2013-04-25 02:59:00,
2013-04-24 23:04:00,30.4,8.9,28.32,ENE,71,0.0,0.0,40,0.00,CLR,OVC,0.00,WeatherDisplay:10.37,2013-04-25 03:04:00,
2013-04-24 23:09:00,30.2,8.2,28.32,ENE,71,0.0,0.0,39,0.00,CLR,OVC,0.00,WeatherDisplay:10.37,2013-04-25 03:09:00,
2013-04-24 23:14:00,29.7,5.9,28.32,ENE,71,0.0,0.0,36,0.00,CLR,OVC,0.00,WeatherDisplay:10.37,2013-04-25 03:14:00,
2013-04-24 23:19:00,29.3,6.2,28.32,ENE,71,0.0,0.0,37,0.00,CLR,OVC,0.00,WeatherDisplay:10.37,2013-04-25 03:19:00,
2013-04-24 23:24:00,29.3,7.9,28.32,ENE,71,0.0,0.0,40,0.00,CLR,OVC,0.00,WeatherDisplay:10.37,2013-04-25 03:24:00,
2013-04-24 23:29:00,29.1,9.9,28.32,ENE,71,0.0,0.0,44,0.00,CLR,OVC,0.00,WeatherDisplay:10.37,2013-04-25 03:29:00,
2013-04-24 23:34:00,28.9,9.7,28.32,East,99,0.0,0.0,44,0.00,CLR,OVC,0.00,WeatherDisplay:10.37,2013-04-25 03:34:00,
2013-04-24 23:39:00,28.8,8.5,28.32,East,99,0.0,0.0,42,0.00,CLR,OVC,0.00,WeatherDisplay:10.37,2013-04-25 03:39:00,
2013-04-24 23:44:00,28.6,8.4,28.32,East,99,0.0,0.0,42,0.00,CLR,OVC,0.00,WeatherDisplay:10.37,2013-04-25 03:44:00,
2013-04-24 23:49:00,28.4,7.7,28.32,East,99,0.0,0.0,41,0.00,CLR,OVC,0.00,WeatherDisplay:10.37,2013-04-25 03:49:00,
2013-04-24 23:54:00,28.0,7.3,28.32,East,99,0.0,0.0,41,0.00,CLR,OVC,0.00,WeatherDisplay:10.37,2013-04-25 03:54:00,
2013-04-24 23:59:00,27.9,7.7,28.32,East,99,0.0,0.0,42,0.00,CLR,OVC,0.00,WeatherDisplay:10.37,2013-04-25 03:59:00,